createdAt,value
2022-09-01T00:00:11.255Z,7.67
2022-09-01T00:02:16.198Z,9.03
2022-09-01T00:04:23.240Z,8.80
2022-09-01T00:06:26.620Z,8.73
2022-09-01T00:08:29.930Z,8.20
2022-09-01T00:10:33.054Z,8.13
2022-09-01T00:12:36.399Z,7.33
2022-09-01T00:14:41.941Z,8.80
2022-09-01T00:16:45.173Z,8.13
2022-09-01T00:18:54.280Z,8.73
2022-09-01T00:20:59.251Z,7.63
2022-09-01T00:23:02.925Z,9.73
2022-09-01T00:25:08.088Z,7.17
2022-09-01T00:27:11.361Z,11.27
2022-09-01T00:29:16.437Z,7.93
2022-09-01T00:31:20.671Z,6.77
2022-09-01T00:33:24.140Z,7.60
2022-09-01T00:35:28.992Z,10.93
2022-09-01T00:37:32.207Z,8.63
2022-09-01T00:39:35.642Z,8.60
2022-09-01T00:41:45.078Z,8.50
2022-09-01T00:43:52.047Z,8.50
2022-09-01T00:45:58.205Z,8.60
2022-09-01T00:48:06.012Z,7.40
2022-09-01T00:50:13.097Z,11.73
2022-09-01T00:52:22.086Z,7.97
2022-09-01T00:54:30.103Z,9.57
2022-09-01T00:56:35.249Z,9.07
2022-09-01T00:58:39.829Z,10.23
2022-09-01T01:00:43.776Z,8.93
2022-09-01T01:02:48.895Z,9.13
2022-09-01T01:04:52.924Z,8.90
2022-09-01T01:07:03.156Z,9.00
2022-09-01T01:09:08.601Z,11.70
2022-09-01T01:11:17.867Z,8.60
2022-09-01T01:13:22.051Z,9.67
2022-09-01T01:15:25.644Z,10.00
2022-09-01T01:17:29.044Z,9.63
2022-09-01T01:19:58.668Z,7.77
2022-09-01T01:22:21.624Z,5.10
2022-09-01T01:24:27.691Z,7.40
2022-09-01T01:26:30.904Z,7.00
2022-09-01T01:28:36.137Z,6.20
2022-09-01T01:30:41.902Z,6.90
2022-09-01T01:32:47.887Z,11.80
2022-09-01T01:34:52.081Z,7.63
2022-09-01T01:37:01.727Z,5.70
2022-09-01T01:39:08.537Z,10.30
2022-09-01T01:41:14.125Z,6.60
2022-09-01T01:43:20.056Z,6.70
2022-09-01T01:45:25.950Z,5.73
2022-09-01T01:47:29.317Z,11.20
2022-09-01T01:49:32.871Z,15.23
2022-09-01T01:51:37.130Z,10.43
2022-09-01T01:53:41.052Z,5.77
2022-09-01T01:55:44.854Z,5.77
2022-09-01T01:57:52.482Z,5.67
2022-09-01T01:59:57.476Z,6.47
2022-09-01T02:02:04.086Z,7.97
2022-09-01T02:04:07.434Z,12.37
2022-09-01T02:06:12.156Z,6.00
2022-09-01T02:08:18.484Z,6.43
2022-09-01T02:10:22.757Z,7.33
2022-09-01T02:12:26.285Z,6.30
2022-09-01T02:14:34.227Z,6.90
2022-09-01T02:16:38.415Z,10.40
2022-09-01T02:18:44.450Z,6.57
2022-09-01T02:20:49.508Z,6.67
2022-09-01T02:22:55.475Z,6.10
2022-09-01T02:25:01.036Z,6.53
2022-09-01T02:27:05.635Z,7.27
2022-09-01T02:29:18.146Z,7.97
2022-09-01T02:31:23.193Z,6.57
2022-09-01T02:33:28.517Z,7.30
2022-09-01T02:35:32.030Z,6.97
2022-09-01T02:37:36.098Z,7.97
2022-09-01T02:39:39.509Z,6.17
2022-09-01T02:41:43.165Z,7.07
2022-09-01T02:43:46.392Z,12.17
2022-09-01T02:45:54.582Z,11.67
2022-09-01T02:47:59.625Z,10.17
2022-09-01T02:50:03.827Z,7.83
2022-09-01T02:52:07.041Z,10.33
2022-09-01T02:54:10.753Z,7.20
2022-09-01T02:56:15.639Z,7.70
2022-09-01T02:58:20.264Z,7.30
2022-09-01T03:00:31.457Z,9.93
2022-09-01T03:02:36.846Z,7.63
2022-09-01T03:04:41.676Z,9.40
2022-09-01T03:06:45.851Z,10.37
2022-09-01T03:08:49.625Z,6.97
2022-09-01T03:10:55.270Z,7.87
2022-09-01T03:12:58.778Z,7.70
2022-09-01T03:15:02.370Z,6.63
2022-09-01T03:17:05.646Z,7.60
2022-09-01T03:19:12.007Z,6.67
2022-09-01T03:21:17.801Z,8.23
2022-09-01T03:23:21.147Z,5.77
2022-09-01T03:25:25.137Z,8.73
2022-09-01T03:27:29.365Z,13.33
2022-09-01T03:29:32.565Z,8.10
2022-09-01T03:31:36.192Z,10.47
2022-09-01T03:33:39.843Z,7.03
2022-09-01T03:35:43.032Z,6.07
2022-09-01T03:37:47.671Z,6.53
2022-09-01T03:39:50.945Z,9.53
2022-09-01T03:42:00.005Z,6.70
2022-09-01T03:44:03.303Z,7.57
2022-09-01T03:46:06.841Z,6.40
2022-09-01T03:48:11.484Z,6.70
2022-09-01T03:50:20.458Z,8.63
2022-09-01T03:52:27.819Z,5.30
2022-09-01T03:54:33.049Z,6.40
2022-09-01T03:56:39.102Z,6.60
2022-09-01T03:58:45.467Z,6.60
2022-09-01T04:00:51.752Z,9.07
2022-09-01T04:02:57.565Z,6.23
2022-09-01T04:05:02.051Z,7.07
2022-09-01T04:07:07.525Z,5.50
2022-09-01T04:09:10.985Z,6.40
2022-09-01T04:11:19.074Z,6.93
2022-09-01T04:13:26.193Z,7.00
2022-09-01T04:15:29.989Z,13.83
2022-09-01T04:17:50.972Z,7.43
2022-09-01T04:19:54.776Z,7.10
2022-09-01T04:22:01.669Z,6.20
2022-09-01T04:24:06.343Z,7.10
2022-09-01T04:26:14.730Z,6.17
2022-09-01T04:28:24.845Z,6.33
2022-09-01T04:30:32.441Z,6.70
2022-09-01T04:32:38.205Z,6.37
2022-09-01T04:34:42.183Z,6.97
2022-09-01T04:36:46.828Z,6.33
2022-09-01T04:38:56.235Z,6.30
2022-09-01T04:40:59.556Z,6.50
2022-09-01T04:43:02.781Z,7.50
2022-09-01T04:45:11.257Z,6.77
2022-09-01T04:47:15.022Z,8.70
2022-09-01T04:49:22.548Z,7.50
2022-09-01T04:51:28.078Z,9.40
2022-09-01T04:53:31.775Z,6.93
2022-09-01T04:55:35.021Z,8.00
2022-09-01T04:57:39.172Z,7.67
2022-09-01T04:59:45.793Z,7.13
2022-09-01T05:01:54.316Z,7.63
2022-09-01T05:04:01.495Z,7.50
2022-09-01T05:06:13.634Z,7.03
2022-09-01T05:08:23.683Z,7.20
2022-09-01T05:10:30.050Z,7.50
2022-09-01T05:12:33.796Z,5.70
2022-09-01T05:14:37.047Z,6.40
2022-09-01T05:16:41.349Z,5.90
2022-09-01T05:18:47.864Z,8.00
2022-09-01T05:20:53.074Z,5.93
2022-09-01T05:22:56.618Z,6.20
2022-09-01T05:25:13.374Z,6.60
2022-09-01T05:27:18.064Z,6.47
2022-09-01T05:29:21.291Z,5.93
2022-09-01T05:31:25.971Z,6.20
2022-09-01T05:33:29.411Z,6.60
2022-09-01T05:35:34.673Z,6.00
2022-09-01T05:37:39.808Z,6.60
2022-09-01T05:39:43.202Z,7.97
2022-09-01T05:41:48.118Z,6.27
2022-09-01T05:43:57.801Z,5.70
2022-09-01T05:46:07.654Z,5.63
2022-09-01T05:48:12.487Z,6.10
2022-09-01T05:50:16.631Z,5.40
2022-09-01T05:52:26.387Z,5.17
2022-09-01T05:54:29.741Z,6.70
2022-09-01T05:56:33.926Z,4.63
2022-09-01T06:01:03.952Z,4.83
2022-09-01T06:03:09.309Z,4.37
2022-09-01T06:05:14.036Z,5.53
2022-09-01T06:07:25.355Z,10.13
2022-09-01T06:09:28.967Z,4.90
2022-09-01T06:11:33.123Z,4.10
2022-09-01T06:13:37.157Z,4.80
2022-09-01T06:15:40.623Z,3.90
2022-09-01T06:17:45.017Z,5.63
2022-09-01T06:19:48.517Z,5.33
2022-09-01T06:21:52.149Z,3.97
2022-09-01T06:23:59.018Z,4.40
2022-09-01T06:26:03.825Z,6.50
2022-09-01T06:28:08.600Z,4.53
2022-09-01T06:30:23.184Z,3.80
2022-09-01T06:32:28.064Z,3.80
2022-09-01T06:34:33.777Z,4.33
2022-09-01T06:36:41.155Z,4.20
2022-09-01T06:38:44.448Z,4.50
2022-09-01T06:40:51.033Z,3.60
2022-09-01T06:42:55.018Z,3.63
2022-09-01T06:44:58.318Z,3.90
2022-09-01T06:47:01.841Z,4.33
2022-09-01T06:49:05.433Z,4.50
2022-09-01T06:51:20.096Z,3.40
2022-09-01T06:53:39.679Z,2.97
2022-09-01T06:55:43.735Z,3.50
2022-09-01T06:58:06.150Z,4.37
2022-09-01T07:00:18.815Z,3.47
2022-09-01T07:02:26.417Z,3.30
2022-09-01T07:04:47.004Z,5.20
2022-09-01T07:07:00.113Z,4.23
2022-09-01T07:09:22.139Z,2.97
2022-09-01T07:16:33.360Z,3.30
2022-09-01T07:18:38.789Z,3.03
2022-09-01T07:23:12.992Z,4.40
2022-09-01T07:25:17.484Z,3.57
2022-09-01T07:27:25.610Z,3.67
2022-09-01T07:34:46.456Z,2.60
2022-09-01T07:44:10.342Z,3.20
2022-09-01T07:53:31.630Z,2.23
2022-09-01T07:55:35.289Z,3.77
2022-09-01T07:57:38.892Z,4.23
2022-09-01T07:59:43.255Z,3.20
2022-09-01T08:01:48.235Z,2.57
2022-09-01T08:03:56.898Z,3.70
2022-09-01T08:06:06.637Z,2.03
2022-09-01T08:08:29.071Z,5.60
2022-09-01T08:10:32.863Z,5.30
2022-09-01T08:12:36.793Z,4.40
2022-09-01T08:14:40.498Z,2.07
2022-09-01T08:16:59.393Z,2.53
2022-09-01T08:19:16.560Z,2.00
2022-09-01T08:21:23.339Z,2.00
2022-09-01T08:23:27.464Z,1.93
2022-09-01T08:25:31.437Z,3.20
2022-09-01T08:27:36.259Z,2.40
2022-09-01T08:29:39.537Z,4.60
2022-09-01T08:31:42.889Z,2.60
2022-09-01T08:33:48.557Z,3.17
2022-09-01T08:35:53.990Z,1.90
2022-09-01T08:37:57.588Z,2.77
2022-09-01T08:40:03.701Z,1.43
2022-09-01T08:42:14.988Z,1.90
2022-09-01T08:44:34.067Z,2.23
2022-09-01T08:46:43.344Z,2.70
2022-09-01T08:51:23.633Z,2.60
2022-09-01T08:53:29.766Z,4.90
2022-09-01T08:55:44.086Z,2.03
2022-09-01T08:57:48.481Z,2.50
2022-09-01T08:59:53.197Z,3.30
2022-09-01T09:02:01.806Z,3.77
2022-09-01T09:04:28.837Z,1.73
2022-09-01T09:06:44.822Z,1.93
2022-09-01T09:09:01.275Z,4.07
2022-09-01T09:11:06.334Z,2.10
2022-09-01T09:13:16.962Z,1.63
2022-09-01T09:15:25.642Z,1.83
2022-09-01T09:17:34.513Z,1.90
2022-09-01T09:19:40.146Z,1.83
2022-09-01T09:21:49.302Z,1.60
2022-09-01T09:24:00.834Z,1.47
2022-09-01T09:26:04.529Z,1.60
2022-09-01T09:28:07.996Z,2.77
2022-09-01T09:30:15.053Z,1.63
2022-09-01T09:32:39.295Z,2.63
2022-09-01T09:34:43.281Z,1.93
2022-09-01T09:36:54.603Z,1.33
2022-09-01T09:39:11.962Z,2.97
2022-09-01T09:41:25.728Z,1.57
2022-09-01T09:43:31.781Z,2.60
2022-09-01T09:45:41.642Z,1.30
2022-09-01T09:47:48.474Z,1.40
2022-09-01T09:50:13.701Z,1.93
2022-09-01T09:52:19.918Z,2.90
2022-09-01T09:54:26.345Z,1.43
2022-09-01T09:56:29.684Z,1.67
2022-09-01T09:58:40.534Z,1.47
2022-09-01T10:01:03.723Z,1.50
2022-09-01T10:03:12.225Z,3.00
2022-09-01T10:05:30.361Z,2.00
2022-09-01T10:07:38.016Z,2.33
2022-09-01T10:09:41.537Z,1.43
2022-09-01T10:11:46.279Z,2.03
2022-09-01T10:13:49.915Z,4.00
2022-09-01T10:15:56.853Z,1.27
2022-09-01T10:18:20.508Z,1.40
2022-09-01T10:20:27.650Z,1.87
2022-09-01T10:22:32.808Z,0.90
2022-09-01T10:24:44.705Z,4.70
2022-09-01T10:26:54.243Z,1.60
2022-09-01T10:29:01.114Z,1.00
2022-09-01T10:31:09.021Z,1.17
2022-09-01T10:33:20.070Z,1.03
2022-09-01T10:35:27.799Z,1.47
2022-09-01T10:37:32.337Z,2.20
2022-09-01T10:39:57.216Z,3.70
2022-09-01T10:42:07.713Z,1.67
2022-09-01T10:44:13.421Z,1.43
2022-09-01T10:46:50.858Z,1.53
2022-09-01T10:48:57.323Z,1.63
2022-09-01T10:51:51.575Z,1.50
2022-09-01T10:54:01.816Z,2.10
2022-09-01T10:56:20.003Z,1.43
2022-09-01T11:01:12.033Z,1.90
2022-09-01T11:03:56.308Z,1.93
2022-09-01T11:06:13.344Z,2.90
2022-09-01T11:08:44.240Z,1.90
2022-09-01T11:11:00.604Z,1.83
2022-09-01T11:13:34.875Z,1.30
2022-09-01T11:15:42.208Z,2.33
2022-09-01T11:17:59.817Z,3.03
2022-09-01T11:20:09.029Z,1.63
2022-09-01T11:22:27.601Z,1.40
2022-09-01T11:24:58.065Z,1.60
2022-09-01T11:27:08.831Z,1.00
2022-09-01T11:29:55.636Z,1.30
2022-09-01T11:32:00.003Z,1.10
2022-09-01T11:34:23.397Z,1.20
2022-09-01T11:36:32.203Z,2.37
2022-09-01T11:38:51.854Z,1.90
2022-09-01T11:40:57.436Z,2.13
2022-09-01T11:43:05.558Z,1.40
2022-09-01T11:45:21.713Z,4.20
2022-09-01T11:47:30.124Z,2.00
2022-09-01T11:49:36.090Z,1.77
2022-09-01T11:51:47.029Z,1.50
2022-09-01T11:53:56.618Z,3.50
2022-09-01T11:56:16.151Z,2.97
2022-09-01T11:58:39.097Z,2.53
2022-09-01T12:00:44.529Z,3.00
2022-09-01T12:02:50.369Z,3.57
2022-09-01T12:04:56.311Z,2.20
2022-09-01T12:07:01.996Z,2.67
2022-09-01T12:09:06.396Z,5.90
2022-09-01T12:11:13.678Z,5.80
2022-09-01T12:13:22.386Z,4.13
2022-09-01T12:15:28.188Z,2.97
2022-09-01T12:17:32.763Z,7.87
2022-09-01T12:19:38.629Z,3.00
2022-09-01T12:21:43.976Z,3.50
2022-09-01T12:23:47.830Z,4.20
2022-09-01T12:25:51.468Z,2.37
2022-09-01T12:27:58.274Z,3.07
2022-09-01T12:30:02.125Z,2.73
2022-09-01T12:32:06.557Z,2.73
2022-09-01T12:34:26.707Z,2.70
2022-09-01T12:36:32.203Z,4.27
2022-09-01T12:38:35.478Z,4.50
2022-09-01T12:40:38.764Z,5.00
2022-09-01T12:42:51.873Z,3.37
2022-09-01T12:44:57.222Z,10.27
2022-09-01T12:47:03.273Z,2.50
2022-09-01T12:49:20.248Z,3.10
2022-09-01T12:51:29.289Z,2.40
2022-09-01T12:53:37.100Z,7.50
2022-09-01T12:55:47.960Z,3.47
2022-09-01T12:57:53.298Z,3.90
2022-09-01T13:00:15.138Z,3.60
2022-09-01T13:02:29.118Z,3.93
2022-09-01T13:04:34.202Z,4.63
2022-09-01T13:06:37.574Z,2.73
2022-09-01T13:08:40.834Z,3.90
2022-09-01T13:10:47.347Z,2.90
2022-09-01T13:12:50.963Z,3.73
2022-09-01T13:14:58.122Z,2.67
2022-09-01T13:17:01.536Z,2.87
2022-09-01T13:19:19.792Z,3.63
2022-09-01T13:21:33.375Z,2.53
2022-09-01T13:23:37.647Z,2.33
2022-09-01T13:25:44.684Z,2.40
2022-09-01T13:27:48.775Z,6.40
2022-09-01T13:29:55.772Z,2.60
2022-09-01T13:34:24.233Z,3.63
2022-09-01T13:36:46.153Z,3.07
2022-09-01T13:38:51.514Z,3.20
2022-09-01T13:41:07.599Z,2.83
2022-09-01T13:43:12.022Z,3.20
2022-09-01T13:45:20.297Z,2.73
2022-09-01T13:47:29.269Z,2.50
2022-09-01T13:51:56.226Z,5.13
2022-09-01T13:54:00.989Z,3.67
2022-09-01T13:56:05.090Z,4.17
2022-09-01T13:58:09.088Z,7.73
2022-09-01T14:00:17.250Z,4.10
2022-09-01T14:02:20.636Z,5.30
2022-09-01T14:04:24.162Z,3.63
2022-09-01T14:06:27.545Z,2.67
2022-09-01T14:08:31.434Z,3.43
2022-09-01T14:10:41.885Z,9.00
2022-09-01T14:12:45.918Z,4.20
2022-09-01T14:17:13.140Z,3.00
2022-09-01T14:19:16.856Z,2.33
2022-09-01T14:21:20.094Z,2.50
2022-09-01T14:23:23.865Z,2.03
2022-09-01T14:25:28.162Z,2.73
2022-09-01T14:27:33.467Z,2.23
2022-09-01T14:31:45.066Z,4.03
2022-09-01T14:33:49.219Z,2.57
2022-09-01T14:35:52.508Z,1.80
2022-09-01T14:37:56.395Z,2.60
2022-09-01T14:39:59.829Z,3.60
2022-09-01T14:42:06.818Z,2.00
2022-09-01T14:44:11.385Z,2.13
2022-09-01T14:46:15.119Z,1.53
2022-09-01T14:48:19.746Z,1.50
2022-09-01T14:50:24.323Z,1.53
2022-09-01T14:52:27.762Z,1.30
2022-09-01T14:54:31.435Z,1.40
2022-09-01T14:56:34.618Z,1.70
2022-09-01T14:58:37.809Z,3.00
2022-09-01T15:00:42.917Z,1.30
2022-09-01T15:02:46.669Z,1.70
2022-09-01T15:04:49.975Z,1.77
2022-09-01T15:06:53.630Z,2.43
2022-09-01T15:08:56.804Z,3.70
2022-09-01T15:11:01.430Z,3.13
2022-09-01T15:13:05.448Z,1.63
2022-09-01T15:15:10.515Z,1.77
2022-09-01T15:17:15.139Z,1.73
2022-09-01T15:19:18.586Z,2.10
2022-09-01T15:21:22.952Z,1.90
2022-09-01T15:23:27.373Z,3.33
2022-09-01T15:25:30.701Z,1.80
2022-09-01T15:27:37.265Z,12.43
2022-09-01T15:29:47.941Z,2.70
2022-09-01T15:31:51.544Z,2.07
2022-09-01T15:33:59.985Z,4.50
2022-09-01T15:36:03.550Z,2.60
2022-09-01T15:38:08.153Z,4.00
2022-09-01T15:40:12.237Z,1.43
2022-09-01T15:42:17.283Z,2.50
2022-09-01T15:44:21.070Z,1.70
2022-09-01T15:46:32.019Z,3.60
2022-09-01T15:48:35.430Z,2.13
2022-09-01T15:50:40.281Z,3.97
2022-09-01T15:52:51.061Z,2.33
2022-09-01T15:54:54.497Z,1.80
2022-09-01T15:56:58.245Z,1.80
2022-09-01T15:59:03.504Z,3.10
2022-09-01T16:01:07.912Z,1.87
2022-09-01T16:03:14.691Z,1.87
2022-09-01T16:05:18.629Z,2.00
2022-09-01T16:07:23.322Z,1.87
2022-09-01T16:09:30.082Z,2.00
2022-09-01T16:11:33.428Z,7.30
2022-09-01T16:13:36.741Z,2.27
2022-09-01T16:15:47.194Z,3.13
2022-09-01T16:18:20.020Z,3.30
2022-09-01T16:20:25.466Z,5.90
2022-09-01T16:22:34.434Z,1.50
2022-09-01T16:24:43.909Z,3.30
2022-09-01T16:26:49.545Z,1.30
2022-09-01T16:28:56.296Z,2.30
2022-09-01T16:31:02.915Z,2.60
2022-09-01T16:33:19.898Z,2.50
2022-09-01T16:35:29.859Z,3.17
2022-09-01T16:37:47.064Z,1.37
2022-09-01T16:39:58.428Z,2.30
2022-09-01T16:42:07.944Z,1.73
2022-09-01T16:44:19.950Z,1.90
2022-09-01T16:46:34.900Z,1.73
2022-09-01T16:48:44.042Z,3.33
2022-09-01T16:50:55.895Z,1.63
2022-09-01T16:53:16.719Z,2.07
2022-09-01T16:55:27.089Z,1.73
2022-09-01T16:57:41.536Z,2.13
2022-09-01T16:59:55.558Z,1.47
2022-09-01T17:02:10.688Z,1.70
2022-09-01T17:04:27.069Z,3.30
2022-09-01T17:06:32.205Z,4.17
2022-09-01T17:08:55.005Z,1.57
2022-09-01T17:11:05.777Z,1.30
2022-09-01T17:13:23.031Z,2.40
2022-09-01T17:15:40.097Z,1.43
2022-09-01T17:17:47.690Z,1.90
2022-09-01T17:19:54.389Z,2.63
2022-09-01T17:22:04.852Z,1.90
2022-09-01T17:24:19.309Z,1.80
2022-09-01T17:26:26.960Z,1.63
2022-09-01T17:28:35.928Z,1.87
2022-09-01T17:30:47.118Z,2.90
2022-09-01T17:33:05.916Z,2.23
2022-09-01T17:35:27.568Z,3.33
2022-09-01T17:37:39.304Z,1.97
2022-09-01T17:40:00.583Z,2.33
2022-09-01T17:42:11.173Z,3.40
2022-09-01T17:44:21.270Z,1.60
2022-09-01T17:46:34.406Z,2.20
2022-09-01T17:48:44.009Z,2.90
2022-09-01T17:50:58.150Z,1.40
2022-09-01T17:53:12.090Z,3.07
2022-09-01T17:55:25.924Z,2.90
2022-09-01T17:57:38.242Z,2.20
2022-09-01T17:59:48.178Z,8.27
2022-09-01T18:02:05.185Z,2.50
2022-09-01T18:04:45.842Z,1.70
2022-09-01T18:06:54.034Z,2.00
2022-09-01T18:08:59.370Z,2.87
2022-09-01T18:11:12.536Z,1.93
2022-09-01T18:13:30.690Z,3.30
2022-09-01T18:15:44.887Z,2.10
2022-09-01T18:17:55.422Z,3.73
2022-09-01T18:20:07.318Z,1.80
2022-09-01T18:22:14.597Z,4.13
2022-09-01T18:24:22.124Z,2.10
2022-09-01T18:26:32.431Z,2.90
2022-09-01T18:28:36.334Z,5.83
2022-09-01T18:30:55.729Z,2.70
2022-09-01T18:33:08.198Z,2.70
2022-09-01T18:35:24.206Z,2.60
2022-09-01T18:37:33.594Z,5.60
2022-09-01T18:39:49.601Z,5.87
2022-09-01T18:42:08.984Z,1.50
2022-09-01T18:44:34.853Z,2.70
2022-09-01T18:46:49.493Z,2.07
2022-09-01T18:49:09.464Z,2.53
2022-09-01T18:51:21.998Z,1.73
2022-09-01T18:53:36.163Z,2.17
2022-09-01T18:55:47.613Z,4.00
2022-09-01T18:57:54.497Z,5.27
2022-09-01T19:00:18.985Z,3.10
2022-09-01T19:02:39.620Z,2.20
2022-09-01T19:04:46.005Z,2.17
2022-09-01T19:07:01.341Z,5.63
2022-09-01T19:09:18.658Z,2.27
2022-09-01T19:11:31.577Z,1.77
2022-09-01T19:14:07.618Z,1.80
2022-09-01T19:16:20.574Z,14.37
2022-09-01T19:18:32.173Z,4.50
2022-09-01T19:20:42.889Z,1.73
2022-09-01T19:22:52.530Z,2.17
2022-09-01T19:25:24.689Z,3.33
2022-09-01T19:27:33.099Z,3.47
2022-09-01T19:29:44.157Z,1.30
2022-09-01T19:31:50.582Z,1.87
2022-09-01T19:33:56.767Z,4.90
2022-09-01T19:36:05.237Z,3.20
2022-09-01T19:38:09.371Z,4.40
2022-09-01T19:40:13.244Z,2.40
2022-09-01T19:42:27.286Z,2.60
2022-09-01T19:44:42.892Z,1.90
2022-09-01T19:46:49.504Z,3.53
2022-09-01T19:48:55.769Z,4.10
2022-09-01T19:51:02.866Z,3.03
2022-09-01T19:53:08.405Z,2.07
2022-09-01T19:55:16.305Z,3.57
2022-09-01T19:57:23.059Z,4.20
2022-09-01T19:59:28.332Z,1.70
2022-09-01T20:01:39.911Z,3.13
2022-09-01T20:03:46.621Z,10.03
2022-09-01T20:05:51.477Z,3.63
2022-09-01T20:07:56.452Z,2.17
2022-09-01T20:10:03.561Z,2.33
2022-09-01T20:12:17.897Z,2.60
2022-09-01T20:14:45.506Z,2.10
2022-09-01T20:16:52.571Z,8.00
2022-09-01T20:19:03.088Z,3.43
2022-09-01T20:21:20.937Z,2.90
2022-09-01T20:23:29.416Z,2.07
2022-09-01T20:25:41.222Z,2.00
2022-09-01T20:27:51.965Z,2.40
2022-09-01T20:30:02.601Z,3.67
2022-09-01T20:32:08.221Z,3.70
2022-09-01T20:34:16.151Z,6.50
2022-09-01T20:36:24.253Z,2.80
2022-09-01T20:38:50.856Z,5.63
2022-09-01T20:40:57.673Z,4.07
2022-09-01T20:43:18.681Z,2.47
2022-09-01T20:45:23.693Z,2.43
2022-09-01T20:47:30.122Z,2.53
2022-09-01T20:49:36.197Z,4.27
2022-09-01T20:51:45.851Z,2.23
2022-09-01T20:54:02.495Z,5.27
2022-09-01T20:56:13.027Z,2.50
2022-09-01T20:58:28.095Z,10.37
2022-09-01T21:00:38.509Z,1.90
2022-09-01T21:02:52.059Z,3.50
2022-09-01T21:05:05.823Z,5.50
2022-09-01T21:07:14.891Z,2.57
2022-09-01T21:09:29.876Z,2.17
2022-09-01T21:11:42.316Z,3.47
2022-09-01T21:13:57.351Z,8.50
2022-09-01T21:16:10.153Z,2.53
2022-09-01T21:18:30.579Z,4.07
2022-09-01T21:20:47.602Z,3.30
2022-09-01T21:22:51.690Z,3.20
2022-09-01T21:24:54.966Z,3.90
2022-09-01T21:27:01.201Z,4.70
2022-09-01T21:29:17.532Z,3.40
2022-09-01T21:31:21.487Z,2.07
2022-09-01T21:33:27.697Z,3.43
2022-09-01T21:35:31.154Z,2.50
2022-09-01T21:37:34.468Z,2.80
2022-09-01T21:39:37.782Z,3.00
2022-09-01T21:41:41.362Z,2.43
2022-09-01T21:43:46.695Z,4.00
2022-09-01T21:45:54.646Z,4.23
2022-09-01T21:47:58.131Z,11.47
2022-09-01T21:50:02.727Z,2.60
2022-09-01T21:52:06.710Z,2.33
2022-09-01T21:54:10.125Z,3.00
2022-09-01T21:56:14.950Z,5.37
2022-09-01T21:58:18.203Z,2.23
2022-09-01T22:00:23.886Z,3.70
2022-09-01T22:02:28.544Z,5.13
2022-09-01T22:04:33.159Z,2.77
2022-09-01T22:06:39.880Z,2.73
2022-09-01T22:08:43.166Z,2.43
2022-09-01T22:10:50.541Z,3.47
2022-09-01T22:12:54.095Z,2.40
2022-09-01T22:14:57.245Z,3.23
2022-09-01T22:17:04.148Z,5.53
2022-09-01T22:19:07.993Z,3.60
2022-09-01T22:21:11.514Z,2.50
2022-09-01T22:23:17.657Z,5.80
2022-09-01T22:25:24.036Z,5.30
2022-09-01T22:27:27.918Z,2.20
2022-09-01T22:29:31.308Z,5.43
2022-09-01T22:31:37.428Z,1.93
2022-09-01T22:33:41.165Z,1.90
2022-09-01T22:35:45.520Z,4.57
2022-09-01T22:37:48.930Z,3.00
2022-09-01T22:39:53.720Z,5.67
2022-09-01T22:41:57.035Z,3.20
2022-09-01T22:44:01.451Z,4.40
2022-09-01T22:46:07.443Z,3.70
2022-09-01T22:48:11.728Z,2.53
2022-09-01T22:50:15.179Z,3.20
2022-09-01T22:52:18.578Z,3.00
2022-09-01T22:54:21.849Z,4.50
2022-09-01T22:56:28.855Z,2.60
2022-09-01T22:58:32.149Z,2.50
2022-09-01T23:00:36.058Z,2.90
2022-09-01T23:02:39.525Z,3.83
2022-09-01T23:04:43.045Z,3.30
2022-09-01T23:06:49.574Z,2.80
2022-09-01T23:08:53.090Z,4.20
2022-09-01T23:10:56.335Z,3.43
2022-09-01T23:13:01.063Z,1.70
2022-09-01T23:15:05.640Z,3.33
2022-09-01T23:17:08.910Z,2.70
2022-09-01T23:19:12.214Z,3.97
2022-09-01T23:21:17.558Z,3.03
2022-09-01T23:23:21.216Z,3.00
2022-09-01T23:25:25.499Z,5.87
2022-09-01T23:27:28.785Z,3.30
2022-09-01T23:29:33.386Z,3.13
2022-09-01T23:31:39.187Z,2.03
2022-09-01T23:33:42.842Z,2.70
2022-09-01T23:35:48.261Z,2.77
2022-09-01T23:37:51.536Z,4.20
2022-09-01T23:39:55.593Z,6.00
2022-09-01T23:41:59.512Z,2.20
2022-09-01T23:44:05.298Z,2.40
2022-09-01T23:46:17.798Z,2.30
2022-09-01T23:48:22.033Z,2.43
2022-09-01T23:50:25.520Z,4.07
2022-09-01T23:52:28.694Z,7.37
2022-09-01T23:54:32.206Z,1.77
2022-09-01T23:56:35.444Z,1.77
2022-09-01T23:58:40.122Z,2.17
